createdAt,value
2023-03-02T00:01:03.812Z,65.78
2023-03-02T00:03:33.509Z,65.89
2023-03-02T00:06:01.993Z,66.12
2023-03-02T00:08:30.101Z,66.62
2023-03-02T00:11:00.983Z,66.68
2023-03-02T00:13:31.449Z,66.60
2023-03-02T00:16:00.809Z,66.72
2023-03-02T00:18:30.119Z,67.00
2023-03-02T00:20:58.157Z,67.10
2023-03-02T00:23:26.183Z,67.17
2023-03-02T00:25:54.268Z,67.29
2023-03-02T00:28:22.198Z,67.43
2023-03-02T00:30:50.276Z,67.71
2023-03-02T00:33:19.955Z,68.03
2023-03-02T00:35:48.140Z,68.04
2023-03-02T00:38:16.297Z,68.16
2023-03-02T00:40:48.777Z,68.23
2023-03-02T00:43:17.141Z,68.16
2023-03-02T00:45:45.102Z,67.91
2023-03-02T00:48:13.066Z,67.91
2023-03-02T00:50:42.615Z,67.75
2023-03-02T00:53:11.408Z,67.98
2023-03-02T00:55:39.585Z,68.01
2023-03-02T00:58:07.585Z,67.90
2023-03-02T01:00:35.677Z,68.17
2023-03-02T01:03:03.636Z,68.42
2023-03-02T01:05:31.600Z,68.57
2023-03-02T01:08:01.019Z,68.90
2023-03-02T01:10:29.126Z,69.14
2023-03-02T01:12:57.118Z,69.18
2023-03-02T01:15:25.145Z,69.48
2023-03-02T01:17:53.138Z,69.76
2023-03-02T01:20:21.219Z,69.94
2023-03-02T01:22:49.168Z,69.94
2023-03-02T01:25:18.730Z,70.01
2023-03-02T01:27:46.746Z,70.10
2023-03-02T01:30:15.381Z,70.21
2023-03-02T01:32:43.334Z,70.12
2023-03-02T01:35:11.928Z,69.86
2023-03-02T01:37:39.894Z,69.61
2023-03-02T01:40:09.532Z,69.61
2023-03-02T01:42:41.937Z,69.49
2023-03-02T01:45:54.791Z,69.49
2023-03-02T01:48:28.820Z,69.63
2023-03-02T01:50:57.187Z,69.52
2023-03-02T01:53:28.592Z,69.53
2023-03-02T01:55:57.380Z,69.54
2023-03-02T01:58:28.171Z,69.50
2023-03-02T02:00:57.629Z,69.67
2023-03-02T02:03:28.521Z,69.67
2023-03-02T02:06:07.090Z,69.60
2023-03-02T02:08:35.276Z,69.77
2023-03-02T02:11:03.238Z,69.74
2023-03-02T02:13:33.612Z,69.68
2023-03-02T02:16:01.924Z,69.67
2023-03-02T02:18:29.899Z,69.64
2023-03-02T02:20:58.544Z,69.81
2023-03-02T02:23:29.467Z,69.56
2023-03-02T02:26:11.488Z,69.48
2023-03-02T02:28:44.358Z,69.77
2023-03-02T02:31:17.544Z,69.57
2023-03-02T02:33:49.133Z,69.77
2023-03-02T02:36:21.705Z,70.12
2023-03-02T02:38:53.428Z,69.97
2023-03-02T02:41:25.911Z,69.74
2023-03-02T02:43:55.077Z,70.08
2023-03-02T02:46:23.983Z,70.33
2023-03-02T02:48:51.995Z,70.29
2023-03-02T02:51:25.185Z,70.32
2023-03-02T02:53:58.873Z,70.25
2023-03-02T02:56:31.876Z,70.52
2023-03-02T02:59:05.315Z,70.54
2023-03-02T03:01:35.248Z,70.58
2023-03-02T03:04:06.049Z,70.79
2023-03-02T03:06:42.315Z,70.72
2023-03-02T03:09:12.580Z,70.72
2023-03-02T03:11:44.627Z,70.60
2023-03-02T03:14:15.360Z,70.59
2023-03-02T03:16:45.103Z,70.69
2023-03-02T03:19:19.115Z,70.78
2023-03-02T03:21:48.750Z,70.55
2023-03-02T03:24:16.478Z,70.84
2023-03-02T03:26:46.383Z,70.65
2023-03-02T03:29:15.874Z,70.78
2023-03-02T03:31:43.712Z,70.88
2023-03-02T03:34:12.424Z,70.81
2023-03-02T03:36:42.149Z,70.60
2023-03-02T03:39:10.674Z,70.94
2023-03-02T03:41:38.874Z,71.00
2023-03-02T03:44:08.436Z,71.09
2023-03-02T03:46:36.742Z,71.03
2023-03-02T03:49:04.829Z,71.27
2023-03-02T03:51:35.527Z,71.11
2023-03-02T03:54:04.764Z,71.27
2023-03-02T03:56:35.084Z,70.98
2023-03-02T03:59:07.412Z,71.23
2023-03-02T04:01:38.794Z,71.15
2023-03-02T04:04:08.672Z,71.10
2023-03-02T04:06:36.450Z,71.03
2023-03-02T04:09:04.773Z,71.22
2023-03-02T04:11:33.081Z,71.28
2023-03-02T04:14:00.985Z,71.28
2023-03-02T04:16:29.863Z,70.88
2023-03-02T04:18:59.398Z,71.28
2023-03-02T04:21:27.598Z,71.04
2023-03-02T04:23:55.389Z,71.35
2023-03-02T04:26:23.165Z,71.44
2023-03-02T04:28:51.699Z,71.32
2023-03-02T04:31:19.521Z,71.62
2023-03-02T04:33:47.351Z,71.65
2023-03-02T04:36:16.527Z,71.72
2023-03-02T04:38:44.223Z,71.73
2023-03-02T04:41:12.051Z,71.79
2023-03-02T04:43:39.736Z,71.75
2023-03-02T04:46:07.628Z,71.94
2023-03-02T04:48:35.640Z,71.84
2023-03-02T04:51:03.416Z,72.40
2023-03-02T04:53:32.609Z,72.32
2023-03-02T04:56:00.506Z,72.50
2023-03-02T04:58:28.307Z,72.57
2023-03-02T05:01:02.106Z,72.71
2023-03-02T05:03:30.110Z,72.80
2023-03-02T05:05:57.963Z,72.81
2023-03-02T05:08:25.724Z,72.60
2023-03-02T05:10:54.790Z,72.61
2023-03-02T05:13:22.804Z,72.76
2023-03-02T05:15:51.690Z,72.71
2023-03-02T05:18:20.445Z,72.97
2023-03-02T05:20:48.146Z,73.24
2023-03-02T05:23:25.293Z,72.92
2023-03-02T05:25:56.244Z,73.29
2023-03-02T05:28:26.114Z,73.43
2023-03-02T05:30:54.286Z,73.78
2023-03-02T05:33:22.328Z,73.61
2023-03-02T05:35:50.206Z,73.73
2023-03-02T05:38:18.123Z,73.59
2023-03-02T05:40:46.494Z,73.81
2023-03-02T05:43:18.456Z,73.98
2023-03-02T05:45:46.529Z,74.06
2023-03-02T05:48:15.556Z,74.24
2023-03-02T05:50:43.411Z,74.17
2023-03-02T05:53:11.177Z,74.38
2023-03-02T05:55:38.901Z,74.67
2023-03-02T05:58:09.088Z,74.75
2023-03-02T06:00:38.327Z,74.76
2023-03-02T06:03:06.105Z,74.91
2023-03-02T06:05:34.082Z,75.05
2023-03-02T06:08:02.172Z,75.03
2023-03-02T06:10:29.890Z,74.95
2023-03-02T06:12:58.579Z,75.17
2023-03-02T06:15:29.776Z,75.24
2023-03-02T06:17:59.105Z,75.42
2023-03-02T06:20:27.465Z,75.33
2023-03-02T06:22:55.760Z,75.46
2023-03-02T06:25:25.021Z,75.56
2023-03-02T06:27:53.829Z,75.58
2023-03-02T06:30:24.189Z,75.74
2023-03-02T06:32:52.220Z,75.52
2023-03-02T06:35:21.709Z,75.78
2023-03-02T06:37:49.535Z,75.70
2023-03-02T06:40:17.364Z,75.78
2023-03-02T06:42:45.187Z,76.08
2023-03-02T06:45:13.244Z,76.17
2023-03-02T06:47:41.114Z,75.82
2023-03-02T06:50:10.601Z,75.72
2023-03-02T06:52:39.955Z,75.42
2023-03-02T06:55:08.839Z,75.79
2023-03-02T06:57:36.581Z,75.58
2023-03-02T07:00:09.997Z,75.64
2023-03-02T07:02:38.600Z,75.53
2023-03-02T07:05:07.772Z,75.41
2023-03-02T07:07:35.666Z,75.22
2023-03-02T07:10:05.430Z,74.84
2023-03-02T07:12:33.173Z,74.41
2023-03-02T07:15:00.884Z,74.63
2023-03-02T07:17:28.671Z,74.30
2023-03-02T07:19:56.578Z,73.98
2023-03-02T07:22:24.283Z,73.58
2023-03-02T07:24:51.983Z,73.85
2023-03-02T07:27:21.114Z,73.36
2023-03-02T07:29:48.907Z,73.15
2023-03-02T07:32:16.703Z,72.79
2023-03-02T07:34:44.511Z,72.50
2023-03-02T07:37:12.246Z,71.84
2023-03-02T07:39:39.945Z,69.55
2023-03-02T07:42:09.079Z,67.93
2023-03-02T07:44:38.236Z,66.66
2023-03-02T07:47:06.112Z,65.28
2023-03-02T07:49:35.374Z,64.09
2023-03-02T07:52:03.572Z,62.42
2023-03-02T07:54:31.479Z,61.18
2023-03-02T07:56:59.446Z,60.89
2023-03-02T07:59:28.391Z,59.19
2023-03-02T08:01:58.403Z,58.39
2023-03-02T08:04:26.659Z,58.18
2023-03-02T08:06:54.484Z,58.09
2023-03-02T08:09:22.316Z,57.80
2023-03-02T08:11:50.121Z,57.11
2023-03-02T08:14:18.049Z,56.32
2023-03-02T08:16:45.851Z,56.05
2023-03-02T08:19:15.082Z,55.88
2023-03-02T08:21:43.105Z,55.62
2023-03-02T08:24:11.100Z,54.79
2023-03-02T08:26:39.259Z,55.14
2023-03-02T08:29:07.993Z,54.80
2023-03-02T08:31:36.226Z,54.20
2023-03-02T08:34:04.273Z,54.60
2023-03-02T08:36:33.802Z,54.55
2023-03-02T08:39:01.706Z,54.05
2023-03-02T08:41:30.624Z,53.86
2023-03-02T08:43:59.076Z,54.07
2023-03-02T08:46:27.040Z,53.75
2023-03-02T08:48:54.950Z,53.62
2023-03-02T08:51:25.093Z,53.23
2023-03-02T08:53:56.547Z,52.86
2023-03-02T08:56:26.549Z,52.38
2023-03-02T08:58:56.245Z,51.85
2023-03-02T09:01:26.671Z,51.51
2023-03-02T09:03:54.562Z,51.16
2023-03-02T09:06:22.841Z,50.67
2023-03-02T09:08:50.788Z,50.48
2023-03-02T09:11:20.426Z,50.17
2023-03-02T09:13:48.600Z,49.89
2023-03-02T09:16:16.748Z,49.26
2023-03-02T09:18:44.786Z,48.97
2023-03-02T09:21:12.611Z,48.53
2023-03-02T09:23:40.790Z,48.51
2023-03-02T09:26:09.015Z,48.08
2023-03-02T09:28:39.078Z,48.20
2023-03-02T09:31:08.592Z,47.62
2023-03-02T09:33:36.749Z,47.11
2023-03-02T09:36:07.582Z,46.92
2023-03-02T09:38:35.516Z,46.75
2023-03-02T09:41:33.792Z,46.93
2023-03-02T09:44:25.411Z,46.24
2023-03-02T09:46:57.258Z,46.16
2023-03-02T09:49:34.137Z,46.22
2023-03-02T09:52:11.715Z,45.68
2023-03-02T09:54:41.409Z,45.83
2023-03-02T09:57:22.043Z,45.61
2023-03-02T09:59:55.246Z,45.07
2023-03-02T10:02:28.302Z,44.92
2023-03-02T10:04:58.562Z,44.48
2023-03-02T10:07:29.365Z,44.64
2023-03-02T10:09:59.978Z,44.22
2023-03-02T10:12:49.976Z,44.13
2023-03-02T10:15:24.766Z,43.70
2023-03-02T10:18:03.975Z,43.84
2023-03-02T10:20:35.692Z,43.57
2023-03-02T10:23:16.629Z,43.37
2023-03-02T10:25:49.490Z,43.03
2023-03-02T10:28:19.993Z,42.65
2023-03-02T10:30:54.697Z,42.27
2023-03-02T10:33:23.307Z,42.60
2023-03-02T10:35:53.009Z,42.22
2023-03-02T10:38:23.650Z,42.20
2023-03-02T10:40:57.253Z,41.71
2023-03-02T10:43:31.716Z,41.74
2023-03-02T10:46:02.636Z,41.66
2023-03-02T10:48:30.622Z,41.52
2023-03-02T10:51:00.603Z,41.68
2023-03-02T10:53:29.083Z,41.30
2023-03-02T10:55:56.881Z,40.82
2023-03-02T10:58:27.644Z,40.70
2023-03-02T11:01:02.666Z,40.82
2023-03-02T11:03:31.475Z,40.17
2023-03-02T11:06:00.696Z,40.37
2023-03-02T11:08:31.748Z,40.48
2023-03-02T11:11:01.754Z,40.39
2023-03-02T11:13:31.670Z,40.26
2023-03-02T11:16:02.453Z,40.73
2023-03-02T11:18:35.085Z,40.79
2023-03-02T11:21:06.828Z,40.19
2023-03-02T11:23:42.052Z,40.08
2023-03-02T11:26:19.317Z,40.59
2023-03-02T11:28:53.523Z,40.18
2023-03-02T11:31:33.863Z,39.94
2023-03-02T11:34:17.639Z,39.89
2023-03-02T11:36:56.220Z,40.15
2023-03-02T11:39:30.054Z,40.22
2023-03-02T11:41:58.433Z,39.58
2023-03-02T11:44:27.440Z,39.17
2023-03-02T11:47:01.987Z,39.66
2023-03-02T11:49:38.776Z,38.73
2023-03-02T11:52:17.037Z,38.41
2023-03-02T11:54:47.032Z,38.26
2023-03-02T11:57:22.543Z,38.93
2023-03-02T11:59:52.185Z,38.59
2023-03-02T12:02:21.850Z,38.10
2023-03-02T12:04:49.816Z,37.58
2023-03-02T12:07:22.908Z,37.75
2023-03-02T12:10:06.579Z,37.24
2023-03-02T12:12:41.985Z,37.92
2023-03-02T12:15:28.860Z,38.28
2023-03-02T12:17:58.127Z,37.94
2023-03-02T12:20:31.650Z,37.75
2023-03-02T12:23:11.447Z,37.39
2023-03-02T12:25:43.882Z,37.04
2023-03-02T12:28:28.332Z,37.25
2023-03-02T12:31:05.534Z,37.54
2023-03-02T12:33:42.401Z,37.36
2023-03-02T12:36:17.091Z,37.40
2023-03-02T12:38:51.291Z,36.85
2023-03-02T12:41:32.128Z,36.89
2023-03-02T12:44:16.682Z,36.44
2023-03-02T12:46:46.652Z,36.54
2023-03-02T12:49:35.507Z,35.96
2023-03-02T12:52:05.528Z,36.23
2023-03-02T12:54:35.997Z,36.31
2023-03-02T12:57:08.693Z,35.88
2023-03-02T12:59:37.665Z,36.07
2023-03-02T13:02:13.886Z,35.22
2023-03-02T13:04:43.026Z,35.24
2023-03-02T13:07:24.331Z,35.58
2023-03-02T13:09:57.046Z,35.06
2023-03-02T13:12:27.864Z,35.06
2023-03-02T13:14:57.887Z,35.00
2023-03-02T13:17:29.537Z,35.81
2023-03-02T13:19:59.601Z,35.43
2023-03-02T13:22:28.581Z,36.16
2023-03-02T13:25:00.272Z,36.85
2023-03-02T13:27:28.547Z,36.17
2023-03-02T13:29:57.309Z,35.98
2023-03-02T13:32:28.369Z,36.45
2023-03-02T13:34:59.369Z,37.06
2023-03-02T13:37:39.158Z,36.75
2023-03-02T13:40:09.507Z,37.06
2023-03-02T13:42:39.698Z,36.80
2023-03-02T13:45:22.204Z,36.11
2023-03-02T13:47:50.312Z,36.74
2023-03-02T13:50:21.965Z,36.46
2023-03-02T13:52:50.560Z,37.14
2023-03-02T13:55:20.151Z,36.69
2023-03-02T13:57:49.137Z,36.76
2023-03-02T14:00:20.164Z,36.50
2023-03-02T14:02:48.757Z,36.42
2023-03-02T14:05:21.484Z,36.95
2023-03-02T14:07:49.934Z,36.58
2023-03-02T14:10:19.286Z,37.34
2023-03-02T14:12:54.987Z,36.72
2023-03-02T14:15:22.766Z,37.31
2023-03-02T14:17:50.645Z,37.11
2023-03-02T14:20:21.782Z,36.74
2023-03-02T14:22:50.659Z,36.04
2023-03-02T14:25:19.631Z,36.31
2023-03-02T14:27:48.055Z,35.65
2023-03-02T14:30:19.568Z,35.89
2023-03-02T14:32:47.628Z,35.90
2023-03-02T14:35:16.862Z,35.34
2023-03-02T14:37:49.794Z,35.88
2023-03-02T14:40:22.107Z,35.73
2023-03-02T14:42:51.839Z,36.02
2023-03-02T14:45:21.682Z,35.46
2023-03-02T14:47:49.559Z,36.13
2023-03-02T14:50:17.750Z,36.45
2023-03-02T14:52:49.227Z,36.44
2023-03-02T14:55:25.716Z,36.51
2023-03-02T14:57:56.605Z,36.14
2023-03-02T15:00:25.360Z,36.45
2023-03-02T15:02:53.329Z,36.33
2023-03-02T15:05:21.731Z,36.51
2023-03-02T15:07:53.165Z,35.89
2023-03-02T15:10:23.347Z,36.13
2023-03-02T15:12:51.887Z,35.86
2023-03-02T15:15:19.917Z,36.60
2023-03-02T15:17:47.727Z,36.63
2023-03-02T15:20:17.156Z,36.97
2023-03-02T15:22:45.009Z,36.83
2023-03-02T15:25:14.249Z,37.07
2023-03-02T15:27:42.552Z,37.01
2023-03-02T15:30:12.329Z,37.25
2023-03-02T15:32:40.320Z,37.53
2023-03-02T15:35:09.117Z,37.41
2023-03-02T15:37:36.979Z,37.58
2023-03-02T15:40:05.155Z,37.33
2023-03-02T15:42:34.298Z,37.56
2023-03-02T15:45:02.009Z,37.78
2023-03-02T15:47:29.764Z,37.79
2023-03-02T15:49:57.647Z,37.76
2023-03-02T15:52:25.443Z,37.63
2023-03-02T15:54:53.227Z,37.64
2023-03-02T15:57:21.080Z,37.55
2023-03-02T15:59:50.441Z,37.59
2023-03-02T16:02:18.284Z,37.78
2023-03-02T16:04:46.257Z,38.28
2023-03-02T16:07:13.980Z,38.41
2023-03-02T16:09:41.769Z,38.10
2023-03-02T16:12:09.589Z,38.17
2023-03-02T16:14:37.393Z,38.33
2023-03-02T16:17:06.553Z,38.43
2023-03-02T16:19:34.392Z,38.39
2023-03-02T16:22:02.160Z,38.53
2023-03-02T16:24:29.888Z,38.99
2023-03-02T16:26:57.668Z,39.81
2023-03-02T16:29:25.487Z,39.87
2023-03-02T16:31:53.487Z,40.46
2023-03-02T16:34:22.823Z,40.81
2023-03-02T16:36:50.721Z,40.71
2023-03-02T16:39:18.530Z,41.10
2023-03-02T16:41:47.046Z,41.30
2023-03-02T16:44:16.150Z,41.58
2023-03-02T16:46:44.335Z,42.09
2023-03-02T16:49:13.036Z,42.53
2023-03-02T16:51:42.897Z,42.44
2023-03-02T16:54:12.048Z,42.75
2023-03-02T16:56:41.782Z,42.94
2023-03-02T16:59:09.619Z,43.67
2023-03-02T17:01:37.419Z,43.49
2023-03-02T17:04:06.094Z,44.25
2023-03-02T17:06:34.203Z,44.37
2023-03-02T17:09:03.460Z,44.45
2023-03-02T17:11:32.027Z,44.87
2023-03-02T17:13:59.914Z,45.11
2023-03-02T17:16:27.905Z,45.43
2023-03-02T17:18:55.696Z,45.52
2023-03-02T17:21:24.496Z,45.60
2023-03-02T17:23:52.251Z,45.91
2023-03-02T17:26:21.346Z,46.01
2023-03-02T17:28:49.553Z,46.35
2023-03-02T17:31:17.405Z,46.67
2023-03-02T17:33:45.320Z,46.90
2023-03-02T17:36:13.292Z,47.28
2023-03-02T17:38:41.525Z,47.03
2023-03-02T17:41:10.949Z,47.40
2023-03-02T17:43:42.295Z,47.39
2023-03-02T17:46:12.258Z,47.72
2023-03-02T17:48:40.354Z,47.77
2023-03-02T17:51:08.076Z,48.12
2023-03-02T17:53:35.878Z,48.45
2023-03-02T17:56:03.651Z,48.52
2023-03-02T17:58:44.224Z,48.83
2023-03-02T18:01:15.776Z,49.03
2023-03-02T18:03:45.137Z,49.11
2023-03-02T18:06:13.393Z,49.55
2023-03-02T18:08:41.459Z,49.77
2023-03-02T18:11:09.342Z,49.72
2023-03-02T18:13:37.509Z,50.10
2023-03-02T18:16:05.555Z,50.08
2023-03-02T18:18:34.751Z,50.35
2023-03-02T18:21:02.561Z,50.67
2023-03-02T18:23:30.783Z,50.96
2023-03-02T18:25:59.226Z,51.10
2023-03-02T18:28:27.152Z,51.27
2023-03-02T18:30:54.843Z,51.34
2023-03-02T18:33:22.600Z,51.53
2023-03-02T18:35:51.584Z,51.86
2023-03-02T18:38:19.378Z,51.75
2023-03-02T18:40:47.136Z,51.94
2023-03-02T18:43:14.782Z,51.84
2023-03-02T18:45:42.486Z,51.94
2023-03-02T18:48:10.348Z,52.09
2023-03-02T18:50:39.568Z,51.73
2023-03-02T18:53:09.638Z,51.81
2023-03-02T18:55:38.096Z,51.48
2023-03-02T18:58:05.753Z,51.30
2023-03-02T19:00:34.886Z,51.43
2023-03-02T19:03:02.627Z,51.44
2023-03-02T19:05:30.350Z,51.43
2023-03-02T19:08:00.131Z,51.59
2023-03-02T19:10:29.259Z,51.64
2023-03-02T19:12:57.045Z,51.96
2023-03-02T19:15:24.963Z,51.50
2023-03-02T19:17:53.112Z,51.61
2023-03-02T19:20:22.031Z,51.63
2023-03-02T19:22:49.949Z,51.59
2023-03-02T19:25:17.878Z,51.29
2023-03-02T19:27:47.274Z,51.47
2023-03-02T19:30:19.412Z,51.18
2023-03-02T19:32:47.623Z,51.00
2023-03-02T19:35:17.858Z,51.13
2023-03-02T19:37:45.842Z,50.92
2023-03-02T19:40:15.152Z,50.98
2023-03-02T19:42:45.135Z,51.01
2023-03-02T19:45:17.373Z,50.93
2023-03-02T19:47:47.062Z,50.82
2023-03-02T19:50:16.280Z,50.57
2023-03-02T19:52:44.332Z,50.77
2023-03-02T19:55:13.817Z,51.08
2023-03-02T19:57:42.992Z,51.06
2023-03-02T20:00:16.083Z,51.05
2023-03-02T20:02:45.048Z,51.14
2023-03-02T20:05:13.186Z,51.23
2023-03-02T20:07:41.847Z,51.27
2023-03-02T20:10:11.307Z,51.62
2023-03-02T20:12:39.079Z,51.61
2023-03-02T20:15:08.129Z,51.63
2023-03-02T20:17:37.260Z,51.65
2023-03-02T20:20:05.676Z,51.46
2023-03-02T20:22:33.489Z,51.49
2023-03-02T20:25:01.234Z,51.79
2023-03-02T20:27:29.332Z,51.77
2023-03-02T20:29:57.321Z,51.63
2023-03-02T20:32:25.313Z,51.68
2023-03-02T20:34:54.575Z,51.50
2023-03-02T20:37:25.835Z,51.52
2023-03-02T20:39:54.143Z,51.40
2023-03-02T20:42:22.214Z,51.50
2023-03-02T20:44:50.007Z,51.46
2023-03-02T20:47:17.858Z,51.27
2023-03-02T20:49:45.675Z,51.70
2023-03-02T20:52:15.102Z,51.08
2023-03-02T20:54:43.737Z,50.89
2023-03-02T20:57:15.931Z,50.61
2023-03-02T20:59:45.737Z,50.49
2023-03-02T21:02:15.459Z,50.61
2023-03-02T21:04:43.460Z,51.11
2023-03-02T21:07:12.236Z,50.87
2023-03-02T21:09:41.847Z,50.65
2023-03-02T21:12:11.728Z,50.54
2023-03-02T21:14:40.671Z,50.47
2023-03-02T21:17:09.373Z,50.11
2023-03-02T21:19:37.415Z,49.87
2023-03-02T21:22:05.131Z,49.61
2023-03-02T21:24:32.876Z,49.64
2023-03-02T21:27:02.621Z,49.51
2023-03-02T21:29:30.670Z,49.84
2023-03-02T21:31:58.635Z,49.96
2023-03-02T21:34:26.398Z,50.06
2023-03-02T21:36:54.146Z,50.31
2023-03-02T21:39:23.583Z,50.32
2023-03-02T21:41:51.844Z,49.82
2023-03-02T21:44:21.241Z,49.91
2023-03-02T21:46:49.154Z,49.84
2023-03-02T21:49:18.243Z,50.14
2023-03-02T21:51:48.822Z,50.48
2023-03-02T21:54:17.323Z,50.37
2023-03-02T21:56:45.292Z,50.24
2023-03-02T21:59:13.814Z,49.93
2023-03-02T22:01:43.127Z,50.02
2023-03-02T22:04:11.127Z,49.89
2023-03-02T22:06:38.863Z,49.88
2023-03-02T22:09:06.681Z,49.59
2023-03-02T22:11:36.300Z,49.66
2023-03-02T22:14:12.178Z,49.67
2023-03-02T22:16:45.062Z,49.90
2023-03-02T22:19:21.432Z,49.82
2023-03-02T22:21:50.024Z,49.48
2023-03-02T22:24:23.682Z,49.30
2023-03-02T22:26:59.443Z,49.15
2023-03-02T22:29:29.578Z,49.31
2023-03-02T22:32:10.885Z,49.26
2023-03-02T22:34:38.870Z,49.42
2023-03-02T22:37:13.364Z,49.40
2023-03-02T22:39:42.341Z,49.40
2023-03-02T22:42:14.459Z,49.48
2023-03-02T22:44:42.425Z,49.47
2023-03-02T22:47:16.669Z,49.58
2023-03-02T22:49:44.669Z,49.67
2023-03-02T22:52:15.384Z,49.55
2023-03-02T22:54:43.130Z,49.72
2023-03-02T22:57:30.006Z,50.03
2023-03-02T23:00:28.947Z,50.21
2023-03-02T23:02:58.530Z,50.22
2023-03-02T23:05:30.222Z,50.33
2023-03-02T23:08:15.865Z,50.44
2023-03-02T23:10:43.786Z,50.60
2023-03-02T23:13:12.754Z,50.60
2023-03-02T23:15:41.495Z,50.76
2023-03-02T23:18:23.975Z,50.74
2023-03-02T23:20:52.867Z,51.02
2023-03-02T23:23:22.431Z,51.25
2023-03-02T23:25:50.692Z,51.32
2023-03-02T23:28:18.482Z,51.57
2023-03-02T23:30:47.561Z,51.77
2023-03-02T23:33:16.644Z,51.80
2023-03-02T23:35:44.433Z,51.90
2023-03-02T23:38:12.557Z,52.18
2023-03-02T23:40:41.589Z,52.39
2023-03-02T23:43:09.423Z,52.48
2023-03-02T23:45:39.168Z,52.52
2023-03-02T23:48:07.705Z,52.68
2023-03-02T23:50:37.119Z,52.69
2023-03-02T23:53:05.127Z,52.78
2023-03-02T23:55:33.325Z,53.09
2023-03-02T23:58:00.995Z,53.25
